sensor_id;sensor_type;location;lat;lon;timestamp;pressure;altitude;pressure_sealevel;temperature;humidity
48888;BME280;42598;53.802;-1.632;2022-07-23T00:00:07;100986.23;;;16.35;56.87
48888;BME280;42598;53.802;-1.632;2022-07-23T00:02:34;100979.80;;;16.76;56.44
48888;BME280;42598;53.802;-1.632;2022-07-23T00:05:03;100975.12;;;17.61;53.97
48888;BME280;42598;53.802;-1.632;2022-07-23T00:07:30;100978.20;;;17.30;55.31
48888;BME280;42598;53.802;-1.632;2022-07-23T00:09:57;100978.51;;;15.66;59.49
48888;BME280;42598;53.802;-1.632;2022-07-23T00:12:24;100976.96;;;16.42;57.79
48888;BME280;42598;53.802;-1.632;2022-07-23T00:14:51;100976.22;;;16.38;57.36
48888;BME280;42598;53.802;-1.632;2022-07-23T00:17:18;100972.05;;;15.79;58.08
48888;BME280;42598;53.802;-1.632;2022-07-23T00:19:45;100971.91;;;16.61;56.86
48888;BME280;42598;53.802;-1.632;2022-07-23T00:22:12;100970.35;;;15.48;59.82
48888;BME280;42598;53.802;-1.632;2022-07-23T00:24:39;100968.52;;;15.59;60.33
48888;BME280;42598;53.802;-1.632;2022-07-23T00:27:06;100965.49;;;16.58;58.39
48888;BME280;42598;53.802;-1.632;2022-07-23T00:29:33;100960.55;;;15.38;60.37
48888;BME280;42598;53.802;-1.632;2022-07-23T00:31:59;100966.64;;;15.61;60.08
48888;BME280;42598;53.802;-1.632;2022-07-23T00:34:26;100962.54;;;15.47;60.48
48888;BME280;42598;53.802;-1.632;2022-07-23T00:36:54;100962.27;;;14.22;65.40
48888;BME280;42598;53.802;-1.632;2022-07-23T00:39:21;100959.91;;;14.92;65.17
48888;BME280;42598;53.802;-1.632;2022-07-23T00:41:48;100956.99;;;15.86;61.99
48888;BME280;42598;53.802;-1.632;2022-07-23T00:44:17;100954.82;;;15.42;63.17
48888;BME280;42598;53.802;-1.632;2022-07-23T00:46:47;100949.60;;;15.27;63.45
48888;BME280;42598;53.802;-1.632;2022-07-23T00:49:15;100949.33;;;14.87;65.02
48888;BME280;42598;53.802;-1.632;2022-07-23T00:51:43;100947.02;;;16.23;62.04
48888;BME280;42598;53.802;-1.632;2022-07-23T00:54:10;100945.37;;;15.48;64.58
48888;BME280;42598;53.802;-1.632;2022-07-23T00:56:37;100944.39;;;15.79;63.71
48888;BME280;42598;53.802;-1.632;2022-07-23T00:59:05;100941.65;;;15.11;65.56
48888;BME280;42598;53.802;-1.632;2022-07-23T01:01:33;100940.93;;;16.88;60.58
48888;BME280;42598;53.802;-1.632;2022-07-23T01:04:00;100941.19;;;16.35;61.44
48888;BME280;42598;53.802;-1.632;2022-07-23T01:06:27;100939.17;;;16.67;60.72
48888;BME280;42598;53.802;-1.632;2022-07-23T01:08:55;100937.44;;;16.40;60.30
48888;BME280;42598;53.802;-1.632;2022-07-23T01:11:23;100933.62;;;15.39;62.21
48888;BME280;42598;53.802;-1.632;2022-07-23T01:13:51;100934.27;;;16.25;60.99
48888;BME280;42598;53.802;-1.632;2022-07-23T01:16:18;100933.42;;;16.38;61.37
48888;BME280;42598;53.802;-1.632;2022-07-23T01:18:45;100928.53;;;17.10;59.14
48888;BME280;42598;53.802;-1.632;2022-07-23T01:21:12;100925.46;;;16.53;59.49
48888;BME280;42598;53.802;-1.632;2022-07-23T01:23:40;100920.33;;;16.72;59.60
48888;BME280;42598;53.802;-1.632;2022-07-23T01:26:07;100919.11;;;16.51;61.27
48888;BME280;42598;53.802;-1.632;2022-07-23T01:28:34;100923.07;;;16.46;60.54
48888;BME280;42598;53.802;-1.632;2022-07-23T01:31:01;100911.99;;;17.29;59.32
48888;BME280;42598;53.802;-1.632;2022-07-23T01:33:28;100909.14;;;17.18;59.76
48888;BME280;42598;53.802;-1.632;2022-07-23T01:35:55;100906.73;;;17.38;58.65
48888;BME280;42598;53.802;-1.632;2022-07-23T01:38:22;100906.54;;;17.17;59.13
48888;BME280;42598;53.802;-1.632;2022-07-23T01:40:49;100910.35;;;16.74;57.80
48888;BME280;42598;53.802;-1.632;2022-07-23T01:43:16;100909.40;;;17.10;57.43
48888;BME280;42598;53.802;-1.632;2022-07-23T01:45:43;100910.81;;;16.71;58.98
48888;BME280;42598;53.802;-1.632;2022-07-23T01:48:11;100909.81;;;17.43;57.26
48888;BME280;42598;53.802;-1.632;2022-07-23T01:50:38;100908.36;;;17.00;56.99
48888;BME280;42598;53.802;-1.632;2022-07-23T01:53:05;100910.80;;;16.89;57.95
48888;BME280;42598;53.802;-1.632;2022-07-23T01:55:31;100907.13;;;16.86;57.64
48888;BME280;42598;53.802;-1.632;2022-07-23T01:57:58;100907.38;;;16.70;58.67
48888;BME280;42598;53.802;-1.632;2022-07-23T02:00:25;100902.82;;;17.37;57.66
48888;BME280;42598;53.802;-1.632;2022-07-23T02:02:52;100904.75;;;16.43;59.01
48888;BME280;42598;53.802;-1.632;2022-07-23T02:05:19;100899.65;;;16.90;57.89
48888;BME280;42598;53.802;-1.632;2022-07-23T02:07:45;100897.13;;;16.64;58.36
48888;BME280;42598;53.802;-1.632;2022-07-23T02:10:12;100896.50;;;16.26;59.34
48888;BME280;42598;53.802;-1.632;2022-07-23T02:12:39;100895.99;;;16.65;58.84
48888;BME280;42598;53.802;-1.632;2022-07-23T02:15:07;100885.97;;;17.08;57.91
48888;BME280;42598;53.802;-1.632;2022-07-23T02:17:34;100881.72;;;16.74;58.78
48888;BME280;42598;53.802;-1.632;2022-07-23T02:20:02;100885.20;;;16.20;61.04
48888;BME280;42598;53.802;-1.632;2022-07-23T02:22:29;100886.77;;;16.48;58.24
48888;BME280;42598;53.802;-1.632;2022-07-23T02:24:56;100882.70;;;17.75;55.77
48888;BME280;42598;53.802;-1.632;2022-07-23T02:27:23;100884.79;;;17.47;56.43
48888;BME280;42598;53.802;-1.632;2022-07-23T02:29:50;100883.50;;;18.54;54.24
48888;BME280;42598;53.802;-1.632;2022-07-23T02:32:17;100885.02;;;18.53;54.35
48888;BME280;42598;53.802;-1.632;2022-07-23T02:34:44;100892.10;;;18.43;54.17
48888;BME280;42598;53.802;-1.632;2022-07-23T02:37:11;100893.15;;;16.77;59.38
48888;BME280;42598;53.802;-1.632;2022-07-23T02:39:37;100891.49;;;16.99;58.96
48888;BME280;42598;53.802;-1.632;2022-07-23T02:42:04;100890.73;;;17.25;57.97
48888;BME280;42598;53.802;-1.632;2022-07-23T02:44:33;100896.54;;;15.56;62.47
48888;BME280;42598;53.802;-1.632;2022-07-23T02:47:00;100896.92;;;16.04;60.96
48888;BME280;42598;53.802;-1.632;2022-07-23T02:49:27;100890.03;;;17.48;57.74
48888;BME280;42598;53.802;-1.632;2022-07-23T02:51:54;100892.33;;;16.82;58.70
48888;BME280;42598;53.802;-1.632;2022-07-23T02:54:21;100889.38;;;17.77;57.37
48888;BME280;42598;53.802;-1.632;2022-07-23T02:56:48;100885.93;;;18.23;56.10
48888;BME280;42598;53.802;-1.632;2022-07-23T02:59:14;100884.66;;;18.64;54.95
48888;BME280;42598;53.802;-1.632;2022-07-23T03:01:41;100889.94;;;16.54;58.73
48888;BME280;42598;53.802;-1.632;2022-07-23T03:04:09;100888.39;;;16.86;59.05
48888;BME280;42598;53.802;-1.632;2022-07-23T03:06:37;100888.25;;;18.29;55.78
48888;BME280;42598;53.802;-1.632;2022-07-23T03:09:04;100883.48;;;17.06;58.07
48888;BME280;42598;53.802;-1.632;2022-07-23T03:11:31;100879.94;;;17.66;56.77
48888;BME280;42598;53.802;-1.632;2022-07-23T03:13:59;100886.70;;;16.56;59.15
48888;BME280;42598;53.802;-1.632;2022-07-23T03:16:26;100877.93;;;17.88;55.45
48888;BME280;42598;53.802;-1.632;2022-07-23T03:18:53;100877.91;;;18.74;54.06
48888;BME280;42598;53.802;-1.632;2022-07-23T03:21:20;100871.99;;;18.22;55.45
48888;BME280;42598;53.802;-1.632;2022-07-23T03:23:47;100880.22;;;17.66;57.15
48888;BME280;42598;53.802;-1.632;2022-07-23T03:26:14;100878.61;;;17.13;57.94
48888;BME280;42598;53.802;-1.632;2022-07-23T03:28:40;100876.19;;;18.06;55.83
48888;BME280;42598;53.802;-1.632;2022-07-23T03:31:08;100881.80;;;18.29;55.10
48888;BME280;42598;53.802;-1.632;2022-07-23T03:33:35;100878.09;;;18.26;54.54
48888;BME280;42598;53.802;-1.632;2022-07-23T03:36:02;100878.70;;;17.55;56.06
48888;BME280;42598;53.802;-1.632;2022-07-23T03:38:30;100876.30;;;17.13;58.13
48888;BME280;42598;53.802;-1.632;2022-07-23T03:40:57;100878.02;;;16.89;57.95
48888;BME280;42598;53.802;-1.632;2022-07-23T03:43:24;100877.33;;;17.01;58.20
48888;BME280;42598;53.802;-1.632;2022-07-23T03:45:50;100878.00;;;16.58;59.69
48888;BME280;42598;53.802;-1.632;2022-07-23T03:48:17;100874.71;;;17.21;57.42
48888;BME280;42598;53.802;-1.632;2022-07-23T03:50:44;100875.61;;;17.30;56.92
48888;BME280;42598;53.802;-1.632;2022-07-23T03:53:11;100875.91;;;17.47;57.44
48888;BME280;42598;53.802;-1.632;2022-07-23T03:55:38;100878.51;;;17.40;57.47
48888;BME280;42598;53.802;-1.632;2022-07-23T03:58:05;100881.23;;;17.33;58.00
48888;BME280;42598;53.802;-1.632;2022-07-23T04:00:32;100883.32;;;16.55;60.06
48888;BME280;42598;53.802;-1.632;2022-07-23T04:02:59;100886.62;;;16.67;59.27
48888;BME280;42598;53.802;-1.632;2022-07-23T04:05:26;100882.99;;;16.20;60.86
48888;BME280;42598;53.802;-1.632;2022-07-23T04:07:53;100882.41;;;15.34;62.88
48888;BME280;42598;53.802;-1.632;2022-07-23T04:10:21;100879.35;;;15.83;61.53
48888;BME280;42598;53.802;-1.632;2022-07-23T04:12:49;100874.56;;;16.63;59.56
48888;BME280;42598;53.802;-1.632;2022-07-23T04:15:15;100873.61;;;16.03;60.12
48888;BME280;42598;53.802;-1.632;2022-07-23T04:17:43;100873.40;;;15.96;61.15
48888;BME280;42598;53.802;-1.632;2022-07-23T04:20:11;100872.18;;;16.22;60.22
48888;BME280;42598;53.802;-1.632;2022-07-23T04:22:38;100870.73;;;16.43;59.39
48888;BME280;42598;53.802;-1.632;2022-07-23T04:25:06;100867.63;;;16.46;59.26
48888;BME280;42598;53.802;-1.632;2022-07-23T04:27:33;100864.88;;;16.98;58.52
48888;BME280;42598;53.802;-1.632;2022-07-23T04:30:00;100867.79;;;14.93;63.51
48888;BME280;42598;53.802;-1.632;2022-07-23T04:32:27;100865.68;;;16.28;59.64
48888;BME280;42598;53.802;-1.632;2022-07-23T04:34:53;100863.59;;;15.60;61.13
48888;BME280;42598;53.802;-1.632;2022-07-23T04:37:21;100859.75;;;16.67;58.46
48888;BME280;42598;53.802;-1.632;2022-07-23T04:39:48;100855.92;;;15.60;61.88
48888;BME280;42598;53.802;-1.632;2022-07-23T04:42:14;100855.73;;;16.42;59.89
48888;BME280;42598;53.802;-1.632;2022-07-23T04:44:41;100857.69;;;15.72;61.42
48888;BME280;42598;53.802;-1.632;2022-07-23T04:47:08;100861.07;;;16.26;60.90
48888;BME280;42598;53.802;-1.632;2022-07-23T04:49:35;100864.50;;;15.75;61.14
48888;BME280;42598;53.802;-1.632;2022-07-23T04:52:02;100862.76;;;16.58;59.14
48888;BME280;42598;53.802;-1.632;2022-07-23T04:54:30;100856.46;;;16.17;59.63
48888;BME280;42598;53.802;-1.632;2022-07-23T04:56:57;100855.30;;;15.48;61.37
48888;BME280;42598;53.802;-1.632;2022-07-23T04:59:24;100852.60;;;16.88;58.79
48888;BME280;42598;53.802;-1.632;2022-07-23T05:01:52;100853.13;;;16.68;58.38
48888;BME280;42598;53.802;-1.632;2022-07-23T05:04:19;100855.83;;;16.46;59.84
48888;BME280;42598;53.802;-1.632;2022-07-23T05:06:46;100860.59;;;16.35;59.01
48888;BME280;42598;53.802;-1.632;2022-07-23T05:09:13;100862.47;;;15.81;61.05
48888;BME280;42598;53.802;-1.632;2022-07-23T05:11:41;100869.62;;;15.06;62.91
48888;BME280;42598;53.802;-1.632;2022-07-23T05:14:08;100872.26;;;14.90;63.54
48888;BME280;42598;53.802;-1.632;2022-07-23T05:16:35;100869.75;;;14.98;63.77
48888;BME280;42598;53.802;-1.632;2022-07-23T05:19:02;100866.02;;;14.77;64.08
48888;BME280;42598;53.802;-1.632;2022-07-23T05:21:29;100863.06;;;15.98;60.76
48888;BME280;42598;53.802;-1.632;2022-07-23T05:23:56;100864.54;;;15.47;61.56
48888;BME280;42598;53.802;-1.632;2022-07-23T05:26:25;100863.60;;;15.90;60.75
48888;BME280;42598;53.802;-1.632;2022-07-23T05:28:52;100856.82;;;14.69;64.09
48888;BME280;42598;53.802;-1.632;2022-07-23T05:31:19;100858.17;;;15.48;62.43
48888;BME280;42598;53.802;-1.632;2022-07-23T05:33:46;100857.04;;;16.20;60.79
48888;BME280;42598;53.802;-1.632;2022-07-23T05:36:13;100857.41;;;15.46;62.69
48888;BME280;42598;53.802;-1.632;2022-07-23T05:38:39;100850.67;;;15.32;63.03
48888;BME280;42598;53.802;-1.632;2022-07-23T05:41:06;100847.43;;;14.10;66.84
48888;BME280;42598;53.802;-1.632;2022-07-23T05:43:33;100849.51;;;15.02;64.34
48888;BME280;42598;53.802;-1.632;2022-07-23T05:46:00;100847.20;;;15.16;64.60
48888;BME280;42598;53.802;-1.632;2022-07-23T05:48:27;100842.97;;;15.82;62.55
48888;BME280;42598;53.802;-1.632;2022-07-23T05:50:53;100842.52;;;15.53;63.34
48888;BME280;42598;53.802;-1.632;2022-07-23T05:53:20;100842.91;;;15.98;62.24
48888;BME280;42598;53.802;-1.632;2022-07-23T05:55:48;100838.39;;;16.20;61.69
48888;BME280;42598;53.802;-1.632;2022-07-23T05:58:14;100836.83;;;16.14;61.90
48888;BME280;42598;53.802;-1.632;2022-07-23T06:00:41;100836.75;;;15.48;63.83
48888;BME280;42598;53.802;-1.632;2022-07-23T06:03:08;100834.47;;;14.54;66.57
48888;BME280;42598;53.802;-1.632;2022-07-23T06:05:35;100830.56;;;14.18;68.93
48888;BME280;42598;53.802;-1.632;2022-07-23T06:08:02;100831.98;;;14.50;68.06
48888;BME280;42598;53.802;-1.632;2022-07-23T06:10:29;100836.17;;;13.93;71.78
48888;BME280;42598;53.802;-1.632;2022-07-23T06:12:56;100832.24;;;15.67;66.31
48888;BME280;42598;53.802;-1.632;2022-07-23T06:15:23;100832.95;;;15.87;64.87
48888;BME280;42598;53.802;-1.632;2022-07-23T06:17:50;100835.06;;;15.33;65.86
48888;BME280;42598;53.802;-1.632;2022-07-23T06:20:17;100835.60;;;14.44;70.84
48888;BME280;42598;53.802;-1.632;2022-07-23T06:22:44;100840.09;;;15.81;65.97
48888;BME280;42598;53.802;-1.632;2022-07-23T06:25:12;100839.07;;;16.63;63.41
48888;BME280;42598;53.802;-1.632;2022-07-23T06:27:39;100842.56;;;15.82;65.37
48888;BME280;42598;53.802;-1.632;2022-07-23T06:30:07;100844.35;;;14.84;68.50
48888;BME280;42598;53.802;-1.632;2022-07-23T06:32:34;100842.61;;;14.40;70.40
48888;BME280;42598;53.802;-1.632;2022-07-23T06:35:01;100845.66;;;14.53;71.82
48888;BME280;42598;53.802;-1.632;2022-07-23T06:37:28;100848.44;;;15.16;69.46
48888;BME280;42598;53.802;-1.632;2022-07-23T06:39:54;100851.00;;;13.37;76.60
48888;BME280;42598;53.802;-1.632;2022-07-23T06:42:21;100854.44;;;14.35;75.69
48888;BME280;42598;53.802;-1.632;2022-07-23T06:44:48;100853.84;;;14.01;76.66
48888;BME280;42598;53.802;-1.632;2022-07-23T06:47:15;100848.03;;;14.07;76.04
48888;BME280;42598;53.802;-1.632;2022-07-23T06:49:43;100848.57;;;16.81;66.61
48888;BME280;42598;53.802;-1.632;2022-07-23T06:52:09;100838.77;;;17.28;63.65
48888;BME280;42598;53.802;-1.632;2022-07-23T06:54:37;100838.92;;;16.87;61.69
48888;BME280;42598;53.802;-1.632;2022-07-23T06:57:04;100838.32;;;16.61;61.93
48888;BME280;42598;53.802;-1.632;2022-07-23T06:59:30;100844.89;;;16.41;64.43
48888;BME280;42598;53.802;-1.632;2022-07-23T07:01:57;100844.21;;;16.32;63.15
48888;BME280;42598;53.802;-1.632;2022-07-23T07:04:25;100844.95;;;16.43;61.04
48888;BME280;42598;53.802;-1.632;2022-07-23T07:06:51;100843.64;;;15.55;63.53
48888;BME280;42598;53.802;-1.632;2022-07-23T07:09:19;100840.76;;;17.19;60.31
48888;BME280;42598;53.802;-1.632;2022-07-23T07:11:46;100840.11;;;17.26;59.84
48888;BME280;42598;53.802;-1.632;2022-07-23T07:14:13;100840.80;;;18.41;55.60
48888;BME280;42598;53.802;-1.632;2022-07-23T07:16:40;100840.20;;;18.65;54.13
48888;BME280;42598;53.802;-1.632;2022-07-23T07:19:07;100840.26;;;19.01;51.63
48888;BME280;42598;53.802;-1.632;2022-07-23T07:21:35;100834.33;;;18.87;52.43
48888;BME280;42598;53.802;-1.632;2022-07-23T07:24:02;100834.15;;;18.73;52.68
48888;BME280;42598;53.802;-1.632;2022-07-23T07:26:29;100836.67;;;19.56;50.96
48888;BME280;42598;53.802;-1.632;2022-07-23T07:28:56;100836.89;;;19.97;49.02
48888;BME280;42598;53.802;-1.632;2022-07-23T07:31:24;100835.20;;;18.94;51.63
48888;BME280;42598;53.802;-1.632;2022-07-23T07:33:51;100835.12;;;19.53;50.01
48888;BME280;42598;53.802;-1.632;2022-07-23T07:36:19;100836.04;;;19.43;49.76
48888;BME280;42598;53.802;-1.632;2022-07-23T07:38:46;100836.91;;;19.65;49.49
48888;BME280;42598;53.802;-1.632;2022-07-23T07:41:13;100830.64;;;19.18;50.52
48888;BME280;42598;53.802;-1.632;2022-07-23T07:43:40;100824.04;;;20.52;48.09
48888;BME280;42598;53.802;-1.632;2022-07-23T07:46:07;100824.31;;;16.82;58.17
48888;BME280;42598;53.802;-1.632;2022-07-23T07:48:35;100821.88;;;16.95;56.80
48888;BME280;42598;53.802;-1.632;2022-07-23T07:51:03;100818.29;;;17.55;56.79
48888;BME280;42598;53.802;-1.632;2022-07-23T07:53:30;100818.42;;;18.67;52.91
48888;BME280;42598;53.802;-1.632;2022-07-23T07:55:58;100815.93;;;19.30;51.14
48888;BME280;42598;53.802;-1.632;2022-07-23T07:58:25;100808.67;;;18.82;52.02
48888;BME280;42598;53.802;-1.632;2022-07-23T08:00:53;100807.46;;;20.06;49.25
48888;BME280;42598;53.802;-1.632;2022-07-23T08:03:20;100811.03;;;18.80;53.10
48888;BME280;42598;53.802;-1.632;2022-07-23T08:05:48;100812.38;;;19.79;50.01
48888;BME280;42598;53.802;-1.632;2022-07-23T08:08:15;100811.57;;;20.94;47.97
48888;BME280;42598;53.802;-1.632;2022-07-23T08:10:43;100810.10;;;21.32;46.61
48888;BME280;42598;53.802;-1.632;2022-07-23T08:13:13;100810.09;;;20.89;47.30
48888;BME280;42598;53.802;-1.632;2022-07-23T08:15:41;100809.44;;;19.19;50.85
48888;BME280;42598;53.802;-1.632;2022-07-23T08:18:08;100812.63;;;19.30;51.05
48888;BME280;42598;53.802;-1.632;2022-07-23T08:20:35;100813.20;;;19.53;50.27
48888;BME280;42598;53.802;-1.632;2022-07-23T08:23:04;100814.70;;;20.15;49.57
48888;BME280;42598;53.802;-1.632;2022-07-23T08:25:34;100820.41;;;20.46;48.40
48888;BME280;42598;53.802;-1.632;2022-07-23T08:28:03;100813.71;;;21.51;45.53
48888;BME280;42598;53.802;-1.632;2022-07-23T08:30:31;100812.44;;;21.33;47.11
48888;BME280;42598;53.802;-1.632;2022-07-23T08:33:01;100809.57;;;22.87;42.88
48888;BME280;42598;53.802;-1.632;2022-07-23T08:35:30;100811.43;;;21.13;45.49
48888;BME280;42598;53.802;-1.632;2022-07-23T08:37:59;100807.47;;;21.01;46.55
48888;BME280;42598;53.802;-1.632;2022-07-23T08:40:27;100804.33;;;21.94;41.27
48888;BME280;42598;53.802;-1.632;2022-07-23T08:42:55;100800.58;;;22.06;41.42
48888;BME280;42598;53.802;-1.632;2022-07-23T08:45:23;100801.70;;;20.80;42.21
48888;BME280;42598;53.802;-1.632;2022-07-23T08:47:53;100803.71;;;22.26;40.62
48888;BME280;42598;53.802;-1.632;2022-07-23T08:50:21;100808.80;;;21.37;40.16
48888;BME280;42598;53.802;-1.632;2022-07-23T08:52:50;100810.64;;;21.66;41.30
48888;BME280;42598;53.802;-1.632;2022-07-23T08:55:18;100816.80;;;20.76;40.22
48888;BME280;42598;53.802;-1.632;2022-07-23T08:57:48;100818.66;;;20.83;41.03
48888;BME280;42598;53.802;-1.632;2022-07-23T09:00:17;100811.38;;;21.29;39.42
48888;BME280;42598;53.802;-1.632;2022-07-23T09:02:45;100806.58;;;21.06;39.75
48888;BME280;42598;53.802;-1.632;2022-07-23T09:05:14;100805.06;;;21.57;39.69
48888;BME280;42598;53.802;-1.632;2022-07-23T09:08:05;100808.26;;;21.86;39.52
48888;BME280;42598;53.802;-1.632;2022-07-23T09:10:43;100806.66;;;21.78;39.09
48888;BME280;42598;53.802;-1.632;2022-07-23T09:13:23;100796.53;;;21.25;40.63
48888;BME280;42598;53.802;-1.632;2022-07-23T09:15:51;100796.00;;;22.77;38.80
48888;BME280;42598;53.802;-1.632;2022-07-23T09:18:20;100792.06;;;22.93;37.70
48888;BME280;42598;53.802;-1.632;2022-07-23T09:21:06;100792.71;;;23.19;35.94
48888;BME280;42598;53.802;-1.632;2022-07-23T09:23:37;100791.35;;;23.18;35.25
48888;BME280;42598;53.802;-1.632;2022-07-23T09:26:19;100789.26;;;23.44;32.34
48888;BME280;42598;53.802;-1.632;2022-07-23T09:28:52;100782.92;;;23.52;31.41
48888;BME280;42598;53.802;-1.632;2022-07-23T09:31:19;100787.30;;;22.70;33.03
48888;BME280;42598;53.802;-1.632;2022-07-23T09:33:47;100790.08;;;20.89;35.75
48888;BME280;42598;53.802;-1.632;2022-07-23T09:36:14;100787.05;;;23.47;32.84
48888;BME280;42598;53.802;-1.632;2022-07-23T09:38:50;100787.37;;;23.60;32.21
48888;BME280;42598;53.802;-1.632;2022-07-23T09:41:18;100787.96;;;22.64;32.43
48888;BME280;42598;53.802;-1.632;2022-07-23T09:43:44;100784.31;;;22.71;32.03
48888;BME280;42598;53.802;-1.632;2022-07-23T09:46:20;100782.46;;;24.07;31.50
48888;BME280;42598;53.802;-1.632;2022-07-23T09:48:48;100780.95;;;24.27;31.35
48888;BME280;42598;53.802;-1.632;2022-07-23T09:51:16;100791.60;;;23.20;33.67
48888;BME280;42598;53.802;-1.632;2022-07-23T09:53:44;100794.01;;;23.26;33.67
48888;BME280;42598;53.802;-1.632;2022-07-23T09:56:13;100794.49;;;22.83;34.94
48888;BME280;42598;53.802;-1.632;2022-07-23T09:58:41;100797.19;;;22.67;36.31
48888;BME280;42598;53.802;-1.632;2022-07-23T10:01:08;100788.23;;;22.54;37.43
48888;BME280;42598;53.802;-1.632;2022-07-23T10:03:36;100790.12;;;22.83;37.25
48888;BME280;42598;53.802;-1.632;2022-07-23T10:06:04;100782.53;;;22.18;39.15
48888;BME280;42598;53.802;-1.632;2022-07-23T10:08:32;100778.96;;;22.85;38.65
48888;BME280;42598;53.802;-1.632;2022-07-23T10:11:00;100780.84;;;23.97;37.52
48888;BME280;42598;53.802;-1.632;2022-07-23T10:13:28;100780.28;;;23.24;38.16
48888;BME280;42598;53.802;-1.632;2022-07-23T10:15:56;100783.87;;;22.63;39.05
48888;BME280;42598;53.802;-1.632;2022-07-23T10:18:24;100779.96;;;23.01;37.77
48888;BME280;42598;53.802;-1.632;2022-07-23T10:20:53;100772.90;;;22.37;39.07
48888;BME280;42598;53.802;-1.632;2022-07-23T10:23:26;100774.71;;;22.42;38.77
48888;BME280;42598;53.802;-1.632;2022-07-23T10:26:05;100783.79;;;23.12;38.95
48888;BME280;42598;53.802;-1.632;2022-07-23T10:28:51;100780.58;;;22.13;39.53
48888;BME280;42598;53.802;-1.632;2022-07-23T10:31:35;100772.95;;;22.30;40.62
48888;BME280;42598;53.802;-1.632;2022-07-23T10:34:14;100769.85;;;24.10;37.30
48888;BME280;42598;53.802;-1.632;2022-07-23T10:36:48;100775.68;;;22.32;39.47
48888;BME280;42598;53.802;-1.632;2022-07-23T10:39:20;100776.93;;;22.76;39.32
48888;BME280;42598;53.802;-1.632;2022-07-23T10:41:49;100781.54;;;22.61;40.24
48888;BME280;42598;53.802;-1.632;2022-07-23T10:44:19;100772.21;;;21.53;43.08
48888;BME280;42598;53.802;-1.632;2022-07-23T10:46:56;100771.54;;;22.48;41.44
48888;BME280;42598;53.802;-1.632;2022-07-23T10:49:26;100771.83;;;21.80;42.95
48888;BME280;42598;53.802;-1.632;2022-07-23T10:52:26;100768.93;;;21.53;45.34
48888;BME280;42598;53.802;-1.632;2022-07-23T10:54:55;100767.47;;;22.57;44.88
48888;BME280;42598;53.802;-1.632;2022-07-23T10:57:25;100766.39;;;22.98;43.94
48888;BME280;42598;53.802;-1.632;2022-07-23T11:00:25;100771.05;;;22.38;41.82
48888;BME280;42598;53.802;-1.632;2022-07-23T11:02:55;100769.55;;;22.98;43.04
48888;BME280;42598;53.802;-1.632;2022-07-23T11:05:23;100771.97;;;21.20;44.97
48888;BME280;42598;53.802;-1.632;2022-07-23T11:08:23;100768.93;;;21.40;43.94
48888;BME280;42598;53.802;-1.632;2022-07-23T11:10:53;100764.15;;;21.35;44.62
48888;BME280;42598;53.802;-1.632;2022-07-23T11:13:39;100758.89;;;22.07;42.98
48888;BME280;42598;53.802;-1.632;2022-07-23T11:16:13;100757.06;;;21.11;41.75
48888;BME280;42598;53.802;-1.632;2022-07-23T11:18:59;100758.74;;;21.61;41.69
48888;BME280;42598;53.802;-1.632;2022-07-23T11:22:02;100757.62;;;21.75;41.71
48888;BME280;42598;53.802;-1.632;2022-07-23T11:24:29;100757.52;;;21.98;42.73
48888;BME280;42598;53.802;-1.632;2022-07-23T11:26:59;100751.34;;;23.12;41.27
48888;BME280;42598;53.802;-1.632;2022-07-23T11:29:58;100748.68;;;23.31;40.57
48888;BME280;42598;53.802;-1.632;2022-07-23T11:32:31;100749.60;;;20.91;45.35
48888;BME280;42598;53.802;-1.632;2022-07-23T11:34:59;100745.68;;;22.50;42.22
48888;BME280;42598;53.802;-1.632;2022-07-23T11:37:31;100742.35;;;22.35;42.57
48888;BME280;42598;53.802;-1.632;2022-07-23T11:39:59;100743.79;;;21.87;42.33
48888;BME280;42598;53.802;-1.632;2022-07-23T11:42:27;100740.25;;;22.04;41.76
48888;BME280;42598;53.802;-1.632;2022-07-23T11:44:55;100736.58;;;22.29;39.73
48888;BME280;42598;53.802;-1.632;2022-07-23T11:47:23;100741.72;;;22.60;38.89
48888;BME280;42598;53.802;-1.632;2022-07-23T11:49:53;100742.03;;;21.45;40.01
48888;BME280;42598;53.802;-1.632;2022-07-23T11:52:22;100745.69;;;21.92;39.00
48888;BME280;42598;53.802;-1.632;2022-07-23T11:54:51;100748.78;;;21.01;38.27
48888;BME280;42598;53.802;-1.632;2022-07-23T11:57:20;100755.65;;;21.36;39.44
48888;BME280;42598;53.802;-1.632;2022-07-23T11:59:51;100746.65;;;21.31;38.52
48888;BME280;42598;53.802;-1.632;2022-07-23T12:02:20;100746.40;;;21.92;38.62
48888;BME280;42598;53.802;-1.632;2022-07-23T12:04:50;100750.15;;;21.82;41.30
48888;BME280;42598;53.802;-1.632;2022-07-23T12:07:29;100756.82;;;20.42;41.80
48888;BME280;42598;53.802;-1.632;2022-07-23T12:09:58;100754.60;;;20.78;42.66
48888;BME280;42598;53.802;-1.632;2022-07-23T12:12:26;100754.61;;;21.60;42.06
48888;BME280;42598;53.802;-1.632;2022-07-23T12:14:55;100764.55;;;20.82;41.55
48888;BME280;42598;53.802;-1.632;2022-07-23T12:17:29;100762.00;;;19.53;45.73
48888;BME280;42598;53.802;-1.632;2022-07-23T12:19:57;100755.90;;;21.04;41.56
48888;BME280;42598;53.802;-1.632;2022-07-23T12:22:26;100758.21;;;21.53;40.22
48888;BME280;42598;53.802;-1.632;2022-07-23T12:25:01;100773.11;;;20.49;41.59
48888;BME280;42598;53.802;-1.632;2022-07-23T12:27:29;100764.93;;;21.08;41.32
48888;BME280;42598;53.802;-1.632;2022-07-23T12:29:56;100769.73;;;20.61;42.75
48888;BME280;42598;53.802;-1.632;2022-07-23T12:32:25;100764.73;;;20.35;43.61
48888;BME280;42598;53.802;-1.632;2022-07-23T12:35:03;100763.69;;;20.24;44.04
48888;BME280;42598;53.802;-1.632;2022-07-23T12:37:32;100760.18;;;20.33;44.21
48888;BME280;42598;53.802;-1.632;2022-07-23T12:40:19;100750.13;;;21.51;41.83
48888;BME280;42598;53.802;-1.632;2022-07-23T12:42:47;100743.17;;;21.94;41.58
48888;BME280;42598;53.802;-1.632;2022-07-23T12:45:16;100739.26;;;21.76;40.42
48888;BME280;42598;53.802;-1.632;2022-07-23T12:48:03;100739.48;;;21.92;40.75